createdAt,value
2017-07-03T00:00:00.362Z,22.35
2017-07-03T00:00:25.989Z,22.38
2017-07-03T00:00:51.537Z,22.39
2017-07-03T00:01:17.089Z,22.41
2017-07-03T00:01:42.647Z,22.41
2017-07-03T00:02:08.221Z,22.39
2017-07-03T00:02:33.795Z,22.37
2017-07-03T00:02:59.352Z,22.41
2017-07-03T00:03:24.903Z,22.44
2017-07-03T00:04:18.716Z,22.38
2017-07-03T00:04:44.267Z,22.37
2017-07-03T00:05:09.809Z,22.39
2017-07-03T00:05:35.381Z,22.38
2017-07-03T00:06:00.932Z,22.38
2017-07-03T00:06:26.490Z,22.38
2017-07-03T00:06:52.078Z,22.38
2017-07-03T00:07:17.671Z,22.44
2017-07-03T00:07:43.268Z,22.41
2017-07-03T00:08:08.830Z,22.43
2017-07-03T00:08:34.425Z,22.41
2017-07-03T00:08:59.977Z,22.39
2017-07-03T00:09:48.677Z,22.37
2017-07-03T00:10:14.295Z,22.46
2017-07-03T00:10:39.818Z,22.37
2017-07-03T00:11:05.368Z,22.39
2017-07-03T00:11:30.918Z,22.38
2017-07-03T00:11:56.475Z,22.39
2017-07-03T00:12:22.031Z,22.39
2017-07-03T00:12:47.597Z,22.43
2017-07-03T00:13:13.149Z,22.38
2017-07-03T00:13:38.718Z,22.39
2017-07-03T00:14:04.294Z,22.38
2017-07-03T00:14:29.853Z,22.39
2017-07-03T00:14:55.400Z,22.39
2017-07-03T00:15:21.018Z,22.41
2017-07-03T00:15:46.724Z,22.32
2017-07-03T00:16:12.329Z,22.39
2017-07-03T00:16:37.887Z,22.41
2017-07-03T00:17:03.453Z,22.39
2017-07-03T00:17:29.034Z,22.43
2017-07-03T00:17:54.615Z,22.39
2017-07-03T00:18:20.179Z,22.39
2017-07-03T00:18:45.736Z,22.39
2017-07-03T00:19:11.283Z,22.37
2017-07-03T00:19:36.881Z,22.39
2017-07-03T00:20:02.464Z,22.41
2017-07-03T00:20:28.018Z,22.39
2017-07-03T00:20:53.570Z,22.38
2017-07-03T00:21:19.138Z,22.39
2017-07-03T00:21:44.697Z,22.38
2017-07-03T00:22:10.314Z,22.37
2017-07-03T00:23:09.262Z,22.37
2017-07-03T00:23:34.875Z,22.41
2017-07-03T00:24:00.438Z,22.29
2017-07-03T00:24:26.032Z,22.38
2017-07-03T00:24:51.575Z,22.32
2017-07-03T00:25:17.127Z,22.39
2017-07-03T00:25:42.711Z,22.38
2017-07-03T00:26:08.263Z,22.34
2017-07-03T00:26:33.923Z,22.34
2017-07-03T00:26:59.593Z,22.38
2017-07-03T00:27:25.202Z,22.41
2017-07-03T00:27:50.753Z,22.37
2017-07-03T00:28:16.368Z,22.39
2017-07-03T00:28:41.933Z,22.35
2017-07-03T00:29:07.495Z,22.43
2017-07-03T00:29:33.057Z,22.35
2017-07-03T00:29:58.641Z,22.35
2017-07-03T00:30:24.199Z,22.39
2017-07-03T00:30:49.808Z,22.34
2017-07-03T00:31:15.356Z,22.39
2017-07-03T00:31:40.909Z,22.35
2017-07-03T00:32:06.507Z,22.39
2017-07-03T00:32:32.059Z,22.38
2017-07-03T00:32:57.618Z,22.41
2017-07-03T00:33:23.239Z,22.39
2017-07-03T00:33:48.835Z,22.39
2017-07-03T00:34:14.411Z,22.41
2017-07-03T00:34:40.016Z,22.32
2017-07-03T00:35:05.580Z,22.37
2017-07-03T00:35:31.136Z,22.31
2017-07-03T00:35:56.712Z,22.39
2017-07-03T00:36:22.315Z,22.34
2017-07-03T00:36:47.871Z,22.38
2017-07-03T00:37:13.461Z,22.32
2017-07-03T00:37:39.017Z,22.31
2017-07-03T00:38:04.587Z,22.37
2017-07-03T00:38:30.240Z,22.35
2017-07-03T00:38:55.812Z,22.31
2017-07-03T00:39:21.364Z,22.32
2017-07-03T00:39:46.972Z,22.38
2017-07-03T00:40:12.522Z,22.34
2017-07-03T00:40:38.077Z,22.28
2017-07-03T00:41:03.644Z,22.39
2017-07-03T00:41:29.208Z,22.31
2017-07-03T00:41:54.759Z,22.34
2017-07-03T00:42:20.390Z,22.41
2017-07-03T00:42:45.970Z,22.27
2017-07-03T00:43:11.524Z,22.41
2017-07-03T00:43:37.114Z,22.39
2017-07-03T00:44:02.730Z,22.34
2017-07-03T00:44:28.288Z,22.32
2017-07-03T00:44:53.872Z,22.41
2017-07-03T00:45:19.453Z,22.37
2017-07-03T00:45:45.021Z,22.39
2017-07-03T00:46:10.586Z,22.28
2017-07-03T00:46:36.219Z,22.31
2017-07-03T00:47:01.791Z,22.27
2017-07-03T00:47:27.344Z,22.39
2017-07-03T00:47:52.922Z,22.37
2017-07-03T00:48:18.480Z,22.37
2017-07-03T00:48:44.038Z,22.43
2017-07-03T00:49:09.664Z,22.37
2017-07-03T00:49:35.220Z,22.38
2017-07-03T00:50:00.789Z,22.29
2017-07-03T00:50:26.349Z,22.29
2017-07-03T00:50:52.026Z,22.35
2017-07-03T00:51:17.565Z,22.28
2017-07-03T00:51:43.130Z,22.29
2017-07-03T00:52:08.693Z,22.28
2017-07-03T00:52:34.248Z,22.37
2017-07-03T00:52:59.821Z,22.28
2017-07-03T00:53:25.402Z,22.29
2017-07-03T00:53:50.950Z,22.34
2017-07-03T00:54:16.584Z,22.28
2017-07-03T00:54:42.142Z,22.27
2017-07-03T00:55:07.703Z,22.32
2017-07-03T00:55:33.253Z,22.34
2017-07-03T00:55:58.870Z,22.31
2017-07-03T00:56:24.428Z,22.27
2017-07-03T00:56:50.021Z,22.35
2017-07-03T00:57:15.723Z,22.38
2017-07-03T00:57:41.271Z,22.31
2017-07-03T00:58:06.828Z,22.32
2017-07-03T00:58:32.384Z,22.25
2017-07-03T00:58:57.945Z,22.29
2017-07-03T00:59:23.505Z,22.32
2017-07-03T00:59:49.094Z,22.31
2017-07-03T01:00:14.660Z,22.29
2017-07-03T01:00:40.221Z,22.37
2017-07-03T01:01:05.788Z,22.27
2017-07-03T01:01:31.347Z,22.29
2017-07-03T01:01:56.906Z,22.29
2017-07-03T01:02:22.579Z,22.28
2017-07-03T01:02:48.148Z,22.27
2017-07-03T01:03:13.711Z,22.29
2017-07-03T01:03:39.337Z,22.38
2017-07-03T01:04:04.908Z,22.39
2017-07-03T01:04:30.470Z,22.28
2017-07-03T01:04:56.029Z,22.37
2017-07-03T01:05:21.580Z,22.34
2017-07-03T01:05:47.147Z,22.28
2017-07-03T01:06:12.776Z,22.27
2017-07-03T01:06:38.360Z,22.29
2017-07-03T01:07:03.914Z,22.29
2017-07-03T01:07:29.490Z,22.31
2017-07-03T01:07:55.040Z,22.32
2017-07-03T01:08:20.613Z,22.37
2017-07-03T01:08:46.213Z,22.29
2017-07-03T01:09:11.783Z,22.29
2017-07-03T01:09:37.352Z,22.29
2017-07-03T01:10:02.913Z,22.34
2017-07-03T01:10:28.521Z,22.32
2017-07-03T01:10:54.090Z,22.32
2017-07-03T01:11:19.644Z,22.27
2017-07-03T01:11:45.194Z,22.29
2017-07-03T01:12:10.763Z,22.32
2017-07-03T01:12:36.340Z,22.31
2017-07-03T01:13:01.999Z,22.23
2017-07-03T01:13:27.575Z,22.28
2017-07-03T01:13:53.124Z,22.28
2017-07-03T01:14:18.703Z,22.23
2017-07-03T01:14:44.266Z,22.29
2017-07-03T01:15:09.829Z,22.34
2017-07-03T01:15:35.410Z,22.28
2017-07-03T01:16:00.967Z,22.28
2017-07-03T01:16:26.524Z,22.32
2017-07-03T01:16:52.103Z,22.32
2017-07-03T01:17:17.739Z,22.29
2017-07-03T01:17:43.311Z,22.27
2017-07-03T01:18:08.852Z,22.32
2017-07-03T01:18:34.388Z,22.29
2017-07-03T01:18:59.960Z,22.27
2017-07-03T01:19:25.499Z,22.23
2017-07-03T01:19:51.129Z,22.25
2017-07-03T01:20:16.751Z,22.31
2017-07-03T01:20:42.310Z,22.29
2017-07-03T01:21:07.864Z,22.28
2017-07-03T01:21:33.446Z,22.29
2017-07-03T01:21:59.103Z,22.29
2017-07-03T01:22:24.677Z,22.28
2017-07-03T01:22:50.243Z,22.23
2017-07-03T01:23:15.824Z,22.34
2017-07-03T01:23:41.509Z,22.27
2017-07-03T01:24:07.069Z,22.35
2017-07-03T01:24:32.627Z,22.27
2017-07-03T01:24:58.180Z,22.27
2017-07-03T01:25:23.718Z,22.27
2017-07-03T01:25:49.291Z,22.25
2017-07-03T01:26:14.852Z,22.23
2017-07-03T01:26:40.411Z,22.25
2017-07-03T01:27:05.994Z,22.2
2017-07-03T01:27:31.552Z,22.23
2017-07-03T01:27:57.131Z,22.27
2017-07-03T01:28:22.716Z,22.23
2017-07-03T01:28:48.273Z,22.23
2017-07-03T01:29:13.826Z,22.27
2017-07-03T01:29:39.510Z,22.32
2017-07-03T01:30:05.204Z,22.25
2017-07-03T01:30:30.760Z,22.28
2017-07-03T01:30:56.317Z,22.32
2017-07-03T01:31:21.870Z,22.29
2017-07-03T01:31:47.434Z,22.29
2017-07-03T01:32:13.002Z,22.28
2017-07-03T01:32:38.581Z,22.25
2017-07-03T01:33:04.156Z,22.29
2017-07-03T01:33:29.703Z,22.32
2017-07-03T01:33:55.272Z,22.32
2017-07-03T01:34:20.830Z,22.31
2017-07-03T01:34:46.410Z,22.22
2017-07-03T01:35:12.071Z,22.32
2017-07-03T01:35:37.621Z,22.23
2017-07-03T01:36:03.191Z,22.27
2017-07-03T01:36:28.761Z,22.27
2017-07-03T01:36:54.323Z,22.23
2017-07-03T01:37:19.885Z,22.23
2017-07-03T01:37:45.471Z,22.22
2017-07-03T01:38:11.042Z,22.31
2017-07-03T01:38:36.640Z,22.23
2017-07-03T01:39:02.289Z,22.29
2017-07-03T01:39:27.871Z,22.27
2017-07-03T01:39:53.430Z,22.31
2017-07-03T01:40:19.001Z,22.27
2017-07-03T01:40:44.567Z,22.25
2017-07-03T01:41:10.134Z,22.27
2017-07-03T01:41:35.789Z,22.28
2017-07-03T01:42:01.368Z,22.29
2017-07-03T01:42:27.006Z,22.27
2017-07-03T01:42:52.550Z,22.23
2017-07-03T01:43:18.128Z,22.28
2017-07-03T01:43:43.688Z,22.28
2017-07-03T01:44:09.254Z,22.32
2017-07-03T01:44:34.834Z,22.35
2017-07-03T01:45:00.391Z,22.27
2017-07-03T01:45:25.951Z,22.32
2017-07-03T01:45:51.498Z,22.23
2017-07-03T01:46:17.062Z,22.25
2017-07-03T01:46:42.650Z,22.23
2017-07-03T01:47:08.302Z,22.19
2017-07-03T01:47:33.829Z,22.23
2017-07-03T01:47:59.393Z,22.25
2017-07-03T01:48:25.002Z,22.25
2017-07-03T01:48:50.558Z,22.27
2017-07-03T01:49:16.121Z,22.32
2017-07-03T01:49:41.762Z,22.27
2017-07-03T01:50:07.319Z,22.22
2017-07-03T01:50:32.883Z,22.27
2017-07-03T01:50:58.456Z,22.34
2017-07-03T01:51:24.010Z,22.27
2017-07-03T01:51:49.571Z,22.34
2017-07-03T01:52:15.137Z,22.28
2017-07-03T01:52:40.717Z,22.23
2017-07-03T01:53:06.300Z,22.27
2017-07-03T01:53:31.960Z,22.28
2017-07-03T01:53:57.534Z,22.25
2017-07-03T01:54:23.110Z,22.28
2017-07-03T01:54:48.678Z,22.2
2017-07-03T01:55:14.230Z,22.28
2017-07-03T01:55:39.783Z,22.25
2017-07-03T01:56:05.408Z,22.23
2017-07-03T01:56:31.022Z,22.25
2017-07-03T01:56:56.578Z,22.31
2017-07-03T01:57:22.143Z,22.29
2017-07-03T01:57:47.701Z,22.28
2017-07-03T01:58:13.287Z,22.25
2017-07-03T01:58:38.858Z,22.27
2017-07-03T01:59:04.424Z,22.32
2017-07-03T01:59:29.980Z,22.25
2017-07-03T01:59:55.595Z,22.25
2017-07-03T02:00:21.157Z,22.29
2017-07-03T02:00:46.720Z,22.23
2017-07-03T02:01:12.274Z,22.28
2017-07-03T02:01:37.911Z,22.23
2017-07-03T02:02:03.494Z,22.23
2017-07-03T02:02:29.098Z,22.25
2017-07-03T02:02:54.692Z,22.27
2017-07-03T02:03:20.246Z,22.27
2017-07-03T02:03:45.810Z,22.27
2017-07-03T02:04:11.389Z,22.25
2017-07-03T02:04:36.956Z,22.27
2017-07-03T02:05:02.515Z,22.23
2017-07-03T02:05:28.085Z,22.28
2017-07-03T02:05:53.641Z,22.29
2017-07-03T02:06:19.190Z,22.25
2017-07-03T02:06:44.840Z,22.27
2017-07-03T02:07:10.399Z,22.29
2017-07-03T02:07:35.959Z,22.31
2017-07-03T02:08:01.527Z,22.27
2017-07-03T02:08:27.094Z,22.28
2017-07-03T02:08:52.662Z,22.29
2017-07-03T02:09:18.252Z,22.27
2017-07-03T02:09:43.830Z,22.28
2017-07-03T02:10:09.400Z,22.27
2017-07-03T02:10:34.962Z,22.22
2017-07-03T02:11:00.523Z,22.28
2017-07-03T02:11:26.078Z,22.28
2017-07-03T02:11:51.773Z,22.25
2017-07-03T02:12:17.335Z,22.22
2017-07-03T02:12:42.890Z,22.29
2017-07-03T02:13:08.474Z,22.31
2017-07-03T02:13:34.040Z,22.25
2017-07-03T02:13:59.614Z,22.23
2017-07-03T02:14:25.181Z,22.22
2017-07-03T02:14:50.781Z,22.29
2017-07-03T02:15:16.286Z,22.28
2017-07-03T02:15:41.861Z,22.25
2017-07-03T02:16:07.422Z,22.25
2017-07-03T02:16:32.985Z,22.27
2017-07-03T02:16:58.663Z,22.28
2017-07-03T02:17:24.247Z,22.31
2017-07-03T02:17:49.804Z,22.29
2017-07-03T02:18:15.366Z,22.28
2017-07-03T02:18:40.923Z,22.25
2017-07-03T02:19:06.473Z,22.28
2017-07-03T02:19:32.125Z,22.25
2017-07-03T02:19:57.708Z,22.22
2017-07-03T02:20:23.263Z,22.27
2017-07-03T02:20:48.819Z,22.23
2017-07-03T02:21:14.410Z,22.25
2017-07-03T02:21:39.969Z,22.28
2017-07-03T02:22:05.551Z,22.27
2017-07-03T02:22:31.142Z,22.27
2017-07-03T02:22:56.691Z,22.28
2017-07-03T02:23:22.235Z,22.2
2017-07-03T02:23:47.786Z,22.31
2017-07-03T02:24:13.348Z,22.28
2017-07-03T02:24:38.968Z,22.28
2017-07-03T02:25:04.512Z,22.31
2017-07-03T02:25:30.084Z,22.23
2017-07-03T02:25:55.644Z,22.27
2017-07-03T02:26:21.277Z,22.22
2017-07-03T02:26:46.844Z,22.2
2017-07-03T02:27:12.408Z,22.27
2017-07-03T02:27:38.083Z,22.22
2017-07-03T02:28:03.657Z,22.25
2017-07-03T02:28:29.227Z,22.28
2017-07-03T02:28:54.775Z,22.27
2017-07-03T02:29:20.460Z,22.29
2017-07-03T02:29:46.010Z,22.31
2017-07-03T02:30:11.562Z,22.25
2017-07-03T02:30:37.138Z,22.22
2017-07-03T02:31:02.690Z,22.22
2017-07-03T02:31:28.247Z,22.25
2017-07-03T02:31:53.789Z,22.31
2017-07-03T02:32:19.368Z,22.27
2017-07-03T02:32:44.938Z,22.23
2017-07-03T02:33:10.605Z,22.31
2017-07-03T02:33:36.181Z,22.28
2017-07-03T02:34:01.740Z,22.28
2017-07-03T02:34:27.361Z,22.25
2017-07-03T02:34:52.928Z,22.28
2017-07-03T02:35:18.475Z,22.28
2017-07-03T02:35:44.100Z,22.25
2017-07-03T02:36:09.647Z,22.25
2017-07-03T02:36:35.209Z,22.25
2017-07-03T02:37:00.849Z,22.23
2017-07-03T02:37:26.409Z,22.28
2017-07-03T02:37:51.982Z,22.23
2017-07-03T02:38:17.570Z,22.25
2017-07-03T02:38:43.126Z,22.25
2017-07-03T02:39:08.688Z,22.29
2017-07-03T02:39:34.306Z,22.29
2017-07-03T02:39:59.855Z,22.25
2017-07-03T02:40:25.415Z,22.27
2017-07-03T02:40:50.976Z,22.28
2017-07-03T02:41:16.530Z,22.22
2017-07-03T02:41:42.083Z,22.23
2017-07-03T02:42:07.694Z,22.28
2017-07-03T02:42:33.263Z,22.29
2017-07-03T02:42:58.825Z,22.28
2017-07-03T02:43:24.468Z,22.29
2017-07-03T02:43:50.029Z,22.25
2017-07-03T02:44:15.587Z,22.31
2017-07-03T02:44:41.235Z,22.25
2017-07-03T02:45:06.805Z,22.23
2017-07-03T02:45:32.364Z,22.25
2017-07-03T02:45:57.990Z,22.29
2017-07-03T02:46:23.526Z,22.29
2017-07-03T02:46:49.111Z,22.25
2017-07-03T02:47:14.693Z,22.29
2017-07-03T02:47:40.326Z,22.22
2017-07-03T02:48:05.886Z,22.2
2017-07-03T02:48:31.457Z,22.25
2017-07-03T02:48:57.019Z,22.31
2017-07-03T02:49:22.582Z,22.28
2017-07-03T02:49:48.156Z,22.2
2017-07-03T02:50:13.730Z,22.29
2017-07-03T02:50:39.289Z,22.28
2017-07-03T02:51:04.851Z,22.23
2017-07-03T02:51:30.471Z,22.23
2017-07-03T02:51:56.069Z,22.25
2017-07-03T02:52:21.607Z,22.25
2017-07-03T02:52:47.187Z,22.28
2017-07-03T02:53:12.742Z,22.29
2017-07-03T02:53:38.299Z,22.27
2017-07-03T02:54:03.870Z,22.2
2017-07-03T02:54:29.448Z,22.25
2017-07-03T02:54:55.007Z,22.25
2017-07-03T02:55:20.596Z,22.28
2017-07-03T02:55:46.140Z,22.23
2017-07-03T02:56:11.708Z,22.29
2017-07-03T02:56:37.259Z,22.25
2017-07-03T02:57:02.809Z,22.29
2017-07-03T02:57:28.491Z,22.25
2017-07-03T02:57:54.086Z,22.28
2017-07-03T02:58:19.643Z,22.23
2017-07-03T02:58:45.201Z,22.28
2017-07-03T02:59:10.838Z,22.28
2017-07-03T02:59:36.400Z,22.29
2017-07-03T03:00:01.952Z,22.25
2017-07-03T03:00:27.526Z,22.29
2017-07-03T03:00:53.070Z,22.23
2017-07-03T03:01:18.624Z,22.28
2017-07-03T03:01:44.179Z,22.25
2017-07-03T03:02:09.735Z,22.25
2017-07-03T03:02:35.389Z,22.27
2017-07-03T03:03:00.943Z,22.25
2017-07-03T03:03:26.511Z,22.32
2017-07-03T03:03:52.070Z,22.25
2017-07-03T03:04:17.637Z,22.25
2017-07-03T03:04:43.189Z,22.2
2017-07-03T03:05:08.885Z,22.27
2017-07-03T03:05:34.496Z,22.29
2017-07-03T03:06:00.063Z,22.22
2017-07-03T03:06:25.635Z,22.34
2017-07-03T03:06:51.192Z,22.31
2017-07-03T03:07:16.828Z,22.25
2017-07-03T03:07:42.377Z,22.28
2017-07-03T03:08:07.943Z,22.22
2017-07-03T03:08:33.638Z,22.22
2017-07-03T03:08:59.199Z,22.27
2017-07-03T03:09:24.822Z,22.25
2017-07-03T03:09:50.414Z,22.23
2017-07-03T03:10:15.982Z,22.29
2017-07-03T03:10:41.546Z,22.27
2017-07-03T03:11:07.100Z,22.25
2017-07-03T03:11:32.664Z,22.25
2017-07-03T03:11:58.210Z,22.25
2017-07-03T03:12:23.777Z,22.25
2017-07-03T03:12:49.333Z,22.28
2017-07-03T03:13:14.883Z,22.29
2017-07-03T03:13:40.447Z,22.31
2017-07-03T03:14:06.004Z,22.31
2017-07-03T03:14:31.615Z,22.22
2017-07-03T03:14:57.266Z,22.28
2017-07-03T03:15:22.833Z,22.22
2017-07-03T03:15:48.450Z,22.27
2017-07-03T03:16:14.007Z,22.25
2017-07-03T03:16:39.565Z,22.23
2017-07-03T03:17:05.113Z,22.23
2017-07-03T03:17:30.761Z,22.25
2017-07-03T03:17:56.326Z,22.29
2017-07-03T03:18:21.911Z,22.28
2017-07-03T03:18:47.470Z,22.28
2017-07-03T03:19:13.020Z,22.23
2017-07-03T03:19:38.580Z,22.32
2017-07-03T03:20:04.205Z,22.25
2017-07-03T03:20:29.784Z,22.25
2017-07-03T03:20:55.343Z,22.27
2017-07-03T03:21:20.919Z,22.28
2017-07-03T03:21:46.462Z,22.28
2017-07-03T03:22:12.012Z,22.2
2017-07-03T03:22:37.576Z,22.31
2017-07-03T03:23:03.167Z,22.27
2017-07-03T03:23:28.723Z,22.27
2017-07-03T03:23:54.280Z,22.28
2017-07-03T03:24:19.852Z,22.2
2017-07-03T03:24:45.414Z,22.22
2017-07-03T03:25:11.086Z,22.32
2017-07-03T03:25:36.737Z,22.25
2017-07-03T03:26:02.300Z,22.27
2017-07-03T03:26:27.856Z,22.27
2017-07-03T03:26:53.420Z,22.28
2017-07-03T03:27:18.979Z,22.13
2017-07-03T03:27:44.551Z,22.28
2017-07-03T03:28:10.135Z,22.28
2017-07-03T03:28:35.688Z,22.25
2017-07-03T03:29:01.243Z,22.23
2017-07-03T03:29:26.879Z,22.14
2017-07-03T03:29:52.453Z,22.23
2017-07-03T03:30:18.016Z,22.2
2017-07-03T03:30:43.667Z,22.31
2017-07-03T03:31:09.222Z,22.23
2017-07-03T03:31:34.762Z,22.28
2017-07-03T03:32:00.340Z,22.25
2017-07-03T03:32:25.899Z,22.28
2017-07-03T03:32:51.462Z,22.27
2017-07-03T03:33:17.041Z,22.2
2017-07-03T03:33:42.590Z,22.27
2017-07-03T03:34:08.147Z,22.28
2017-07-03T03:34:33.748Z,22.25
2017-07-03T03:34:59.340Z,22.14
2017-07-03T03:35:24.903Z,22.27
2017-07-03T03:35:50.544Z,22.34
2017-07-03T03:36:16.103Z,22.25
2017-07-03T03:36:41.659Z,22.28
2017-07-03T03:37:07.219Z,22.23
2017-07-03T03:37:32.782Z,22.25
2017-07-03T03:37:58.408Z,22.23
2017-07-03T03:38:23.959Z,22.19
2017-07-03T03:38:49.607Z,22.25
2017-07-03T03:39:15.169Z,22.27
2017-07-03T03:39:40.729Z,22.25
2017-07-03T03:40:06.339Z,22.23
2017-07-03T03:40:31.895Z,22.22
2017-07-03T03:40:57.457Z,22.16
2017-07-03T03:41:23.143Z,22.25
2017-07-03T03:41:48.728Z,22.25
2017-07-03T03:42:14.283Z,22.25
2017-07-03T03:42:39.838Z,22.27
2017-07-03T03:43:05.390Z,22.19
2017-07-03T03:43:30.949Z,22.17
2017-07-03T03:43:56.530Z,22.25
2017-07-03T03:44:22.092Z,22.22
2017-07-03T03:44:47.680Z,22.27
2017-07-03T03:45:13.229Z,22.29
2017-07-03T03:45:38.802Z,22.2
2017-07-03T03:46:04.396Z,22.23
2017-07-03T03:46:30.027Z,22.17
2017-07-03T03:46:55.619Z,22.25
2017-07-03T03:47:21.171Z,22.28
2017-07-03T03:47:46.808Z,22.28
2017-07-03T03:48:12.379Z,22.23
2017-07-03T03:48:37.942Z,22.2
2017-07-03T03:49:03.497Z,22.17
2017-07-03T03:49:29.059Z,22.2
2017-07-03T03:49:54.629Z,22.2
2017-07-03T03:50:20.202Z,22.19
2017-07-03T03:50:45.789Z,22.25
2017-07-03T03:51:11.334Z,22.25
2017-07-03T03:51:36.893Z,22.25
2017-07-03T03:52:02.481Z,22.19
2017-07-03T03:52:28.044Z,22.31
2017-07-03T03:52:53.667Z,22.17
2017-07-03T03:53:19.240Z,22.28
2017-07-03T03:53:44.792Z,22.19
2017-07-03T03:54:10.395Z,22.25
2017-07-03T03:54:35.937Z,22.22
2017-07-03T03:55:01.489Z,22.22
2017-07-03T03:55:27.128Z,22.22
2017-07-03T03:55:52.705Z,22.23
2017-07-03T03:56:18.273Z,22.23
2017-07-03T03:56:43.813Z,22.25
2017-07-03T03:57:09.439Z,22.27
2017-07-03T03:57:34.998Z,22.19
2017-07-03T03:58:00.566Z,22.29
2017-07-03T03:58:26.288Z,22.25
2017-07-03T03:58:51.837Z,22.28
2017-07-03T03:59:17.419Z,22.17
2017-07-03T03:59:42.986Z,22.28
2017-07-03T04:00:08.544Z,22.31
2017-07-03T04:00:34.139Z,22.28
2017-07-03T04:00:59.838Z,22.19
2017-07-03T04:01:25.490Z,22.19
2017-07-03T04:01:51.061Z,22.2
2017-07-03T04:02:16.630Z,22.17
2017-07-03T04:02:42.186Z,22.2
2017-07-03T04:03:07.739Z,22.19
2017-07-03T04:03:33.327Z,22.17
2017-07-03T04:03:58.969Z,22.17
2017-07-03T04:04:24.521Z,22.23
2017-07-03T04:04:50.071Z,22.2
2017-07-03T04:05:15.753Z,22.27
2017-07-03T04:05:41.349Z,22.29
2017-07-03T04:06:06.910Z,22.27
2017-07-03T04:06:32.490Z,22.23
2017-07-03T04:06:58.032Z,22.2
2017-07-03T04:07:23.612Z,22.16
2017-07-03T04:07:49.186Z,22.23
2017-07-03T04:08:14.761Z,22.2
2017-07-03T04:08:40.313Z,22.19
2017-07-03T04:09:05.848Z,22.23
2017-07-03T04:09:31.419Z,22.2
2017-07-03T04:09:56.977Z,22.28
2017-07-03T04:10:22.541Z,22.28
2017-07-03T04:10:48.099Z,22.27
2017-07-03T04:11:13.664Z,22.2
2017-07-03T04:11:39.330Z,22.2
2017-07-03T04:12:04.973Z,22.2
2017-07-03T04:12:30.544Z,22.23
2017-07-03T04:12:56.104Z,22.22
2017-07-03T04:13:21.655Z,22.19
2017-07-03T04:13:47.225Z,22.2
2017-07-03T04:14:12.813Z,22.17
2017-07-03T04:14:38.454Z,22.28
2017-07-03T04:15:04.051Z,22.25
2017-07-03T04:15:29.610Z,22.22
2017-07-03T04:15:55.226Z,22.25
2017-07-03T04:16:20.837Z,22.23
2017-07-03T04:16:46.392Z,22.13
2017-07-03T04:17:12.049Z,22.19
2017-07-03T04:17:37.691Z,22.17
2017-07-03T04:18:03.239Z,22.23
2017-07-03T04:18:28.810Z,22.17
2017-07-03T04:18:54.357Z,22.19
2017-07-03T04:19:19.929Z,22.19
2017-07-03T04:19:45.489Z,22.27
2017-07-03T04:20:11.115Z,22.19
2017-07-03T04:20:36.686Z,22.28
2017-07-03T04:21:02.249Z,22.23
2017-07-03T04:21:27.818Z,22.23
2017-07-03T04:21:53.374Z,22.19
2017-07-03T04:22:18.959Z,22.22
2017-07-03T04:22:44.577Z,22.2
2017-07-03T04:23:10.149Z,22.12
2017-07-03T04:23:35.753Z,22.23
2017-07-03T04:24:01.309Z,22.28
2017-07-03T04:24:26.909Z,22.25
2017-07-03T04:24:52.460Z,22.2
2017-07-03T04:25:18.047Z,22.19
2017-07-03T04:25:43.606Z,22.22
2017-07-03T04:26:09.190Z,22.19
2017-07-03T04:26:34.748Z,22.23
2017-07-03T04:27:00.333Z,22.22
2017-07-03T04:27:25.898Z,22.2
2017-07-03T04:27:51.462Z,22.17
2017-07-03T04:28:17.032Z,22.17
2017-07-03T04:28:42.582Z,22.23
2017-07-03T04:29:08.151Z,22.27
2017-07-03T04:29:33.818Z,22.17
2017-07-03T04:29:59.382Z,22.22
2017-07-03T04:30:24.935Z,22.19
2017-07-03T04:30:50.495Z,22.28
2017-07-03T04:31:16.068Z,22.2
2017-07-03T04:31:41.617Z,22.19
2017-07-03T04:32:07.264Z,22.2
2017-07-03T04:32:32.803Z,22.19
2017-07-03T04:32:58.385Z,22.22
2017-07-03T04:33:24.017Z,22.17
2017-07-03T04:33:49.624Z,22.19
2017-07-03T04:34:15.211Z,22.25
2017-07-03T04:34:40.760Z,22.19
2017-07-03T04:35:06.316Z,22.2
2017-07-03T04:35:31.878Z,22.17
2017-07-03T04:35:57.438Z,22.17
2017-07-03T04:36:23.008Z,22.16
2017-07-03T04:36:48.569Z,22.23
2017-07-03T04:37:14.136Z,22.17
2017-07-03T04:37:39.698Z,22.17
2017-07-03T04:38:05.300Z,22.25
2017-07-03T04:38:30.869Z,22.2
2017-07-03T04:38:56.437Z,22.19
2017-07-03T04:39:21.973Z,22.14
2017-07-03T04:39:47.611Z,22.14
2017-07-03T04:40:13.179Z,22.14
2017-07-03T04:40:38.740Z,22.16
2017-07-03T04:41:04.358Z,22.14
2017-07-03T04:41:29.915Z,22.17
2017-07-03T04:41:55.465Z,22.17
2017-07-03T04:42:21.037Z,22.17
2017-07-03T04:42:46.603Z,22.2
2017-07-03T04:43:12.154Z,22.23
2017-07-03T04:43:37.692Z,22.27
2017-07-03T04:44:03.263Z,22.2
2017-07-03T04:44:28.821Z,22.16
2017-07-03T04:44:54.401Z,22.23
2017-07-03T04:45:19.970Z,22.25
2017-07-03T04:45:45.522Z,22.2
2017-07-03T04:46:11.186Z,22.19
2017-07-03T04:46:36.775Z,22.14
2017-07-03T04:47:02.325Z,22.23
2017-07-03T04:47:27.925Z,22.23
2017-07-03T04:47:53.507Z,22.23
2017-07-03T04:48:19.101Z,22.23
2017-07-03T04:48:44.664Z,22.25
2017-07-03T04:49:10.229Z,22.17
2017-07-03T04:49:35.783Z,22.2
2017-07-03T04:50:01.474Z,22.17
2017-07-03T04:50:27.087Z,22.23
2017-07-03T04:50:52.634Z,22.17
2017-07-03T04:51:18.205Z,22.22
2017-07-03T04:51:43.777Z,22.17
2017-07-03T04:52:09.385Z,22.19
2017-07-03T04:52:34.961Z,22.28
2017-07-03T04:53:00.569Z,22.17
2017-07-03T04:53:26.128Z,22.27
2017-07-03T04:53:51.689Z,22.27
2017-07-03T04:54:17.309Z,22.22
2017-07-03T04:54:42.869Z,22.27
2017-07-03T04:55:08.428Z,22.23
2017-07-03T04:55:34.031Z,22.17
2017-07-03T04:55:59.634Z,22.23
2017-07-03T04:56:25.198Z,22.27
2017-07-03T04:56:50.751Z,22.19
2017-07-03T04:57:16.308Z,22.22
2017-07-03T04:57:41.862Z,22.23
2017-07-03T04:58:07.508Z,22.23
2017-07-03T04:58:33.065Z,22.17
2017-07-03T04:58:58.629Z,22.19
2017-07-03T04:59:24.200Z,22.22
2017-07-03T04:59:49.809Z,22.25
2017-07-03T05:00:15.362Z,22.17
2017-07-03T05:00:40.961Z,22.23
2017-07-03T05:01:06.523Z,22.2
2017-07-03T05:01:32.086Z,22.2
2017-07-03T05:01:57.677Z,22.23
2017-07-03T05:02:23.220Z,22.16
2017-07-03T05:02:48.786Z,22.19
2017-07-03T05:03:14.359Z,22.23
2017-07-03T05:03:40.044Z,22.25
2017-07-03T05:04:05.613Z,22.2
2017-07-03T05:04:31.157Z,22.22
2017-07-03T05:04:56.798Z,22.25
2017-07-03T05:05:22.354Z,22.19
2017-07-03T05:05:47.904Z,22.23
2017-07-03T05:06:13.515Z,22.17
2017-07-03T05:06:39.079Z,22.22
2017-07-03T05:07:04.630Z,22.23
2017-07-03T05:07:30.227Z,22.17
2017-07-03T05:07:55.783Z,22.23
2017-07-03T05:08:21.356Z,22.17
2017-07-03T05:08:46.973Z,22.19
2017-07-03T05:09:12.544Z,22.19
2017-07-03T05:09:38.098Z,22.19
2017-07-03T05:10:03.740Z,22.2
2017-07-03T05:10:29.301Z,22.17
2017-07-03T05:10:54.892Z,22.23
2017-07-03T05:11:20.450Z,22.2
2017-07-03T05:11:46.014Z,22.13
2017-07-03T05:12:11.592Z,22.25
2017-07-03T05:12:37.198Z,22.2
2017-07-03T05:13:02.798Z,22.2
2017-07-03T05:13:28.356Z,22.23
2017-07-03T05:13:53.913Z,22.31
2017-07-03T05:14:19.510Z,22.17
2017-07-03T05:14:45.104Z,22.23
2017-07-03T05:15:10.674Z,22.23
2017-07-03T05:15:36.225Z,22.23
2017-07-03T05:16:01.787Z,22.17
2017-07-03T05:16:27.339Z,22.17
2017-07-03T05:16:52.892Z,22.22
2017-07-03T05:17:18.445Z,22.23
2017-07-03T05:17:44.109Z,22.23
2017-07-03T05:18:09.697Z,22.25
2017-07-03T05:18:35.254Z,22.19
2017-07-03T05:19:00.810Z,22.23
2017-07-03T05:19:26.423Z,22.22
2017-07-03T05:19:52.010Z,22.27
2017-07-03T05:20:17.569Z,22.19
2017-07-03T05:20:43.124Z,22.23
2017-07-03T05:21:08.689Z,22.25
2017-07-03T05:21:34.245Z,22.23
2017-07-03T05:21:59.897Z,22.17
2017-07-03T05:22:25.486Z,22.23
2017-07-03T05:22:51.025Z,22.27
2017-07-03T05:23:16.630Z,22.27
2017-07-03T05:23:42.187Z,22.28
2017-07-03T05:24:07.740Z,22.28
2017-07-03T05:24:33.330Z,22.31
2017-07-03T05:24:58.899Z,22.2
2017-07-03T05:25:24.463Z,22.17
2017-07-03T05:25:50.050Z,22.23
2017-07-03T05:26:15.624Z,22.25
2017-07-03T05:26:41.175Z,22.27
2017-07-03T05:27:29.941Z,22.31
2017-07-03T05:27:55.519Z,22.25
2017-07-03T05:28:21.056Z,22.28
2017-07-03T05:28:46.778Z,22.31
2017-07-03T05:29:12.337Z,22.28
2017-07-03T05:29:37.880Z,22.28
2017-07-03T05:30:03.470Z,22.29
2017-07-03T05:30:29.028Z,22.25
2017-07-03T05:30:54.585Z,22.31
2017-07-03T05:31:20.144Z,22.28
2017-07-03T05:31:45.710Z,22.29